Anchor, Illinois
Current Conditions -  °F | °C
As of 10:56 AM on Monday 22 Dec 2014 (Local Time) from KBMI Reporting Station
Light Rain Light Rain  
Wind Chill: -3°   Ceiling: 400
Heat Index:   Visibility: 1.7mi
Dew Point:   Wind: 16mph
Humidity: 97%   Direction: 120°ESE
Pressure: 29.77"   Gusts: NA
Location:  40.57°N, 88.54°W
Report Text: KBMI 221656Z 12014KT 1 3/4SM -RA BR OVC004 03/02 A2977 RMK AO2 T00270022 P0006 PRESFR SLP093
Loading
Personal Weather Stations






























Interactive Weather Map New forecast layout! Learn more

10-Day Weather Forecast

Advertisements
Track Severe Weather on mobile